Time;durP1;ratioP1;P1;durP2;ratioP2;P2;SDS_P1;SDS_P2;PMS_P1;PMS_P2;Temp;Humidity;BMP_temperature;BMP_pressure;BME280_temperature;BME280_humidity;BME280_pressure;Samples;Min_cycle;Max_cycle;Signal;HPM_P1;HPM_P2
2021/08/23 00:00:18;;;;;;;2.80;2.70;;;22.10;94.70;;;;;;4977419;28;20015;-77
2021/08/23 00:02:46;;;;;;;2.65;2.42;;;22.20;94.30;;;;;;4976918;28;20026;-77
2021/08/23 00:05:13;;;;;;;2.90;2.63;;;22.40;94.50;;;;;;4977433;28;20041;-77
2021/08/23 00:07:40;;;;;;;3.03;2.75;;;22.50;94.50;;;;;;4976875;28;20038;-78
2021/08/23 00:10:09;;;;;;;3.00;2.10;;;22.60;94.00;;;;;;4977083;28;20109;-79
2021/08/23 00:12:37;;;;;;;3.03;2.30;;;22.40;94.00;;;;;;4976607;28;20069;-76
2021/08/23 00:15:09;;;;;;;2.58;2.20;;;22.10;94.30;;;;;;4976700;28;20105;-77
2021/08/23 00:17:36;;;;;;;2.80;2.50;;;22.00;94.20;;;;;;4975251;28;20077;-77
2021/08/23 00:20:07;;;;;;;3.90;2.70;;;22.00;94.50;;;;;;4976343;28;20546;-76
2021/08/23 00:22:47;;;;;;;3.30;2.80;;;21.90;94.60;;;;;;4975469;28;20019;-78
2021/08/23 00:25:15;;;;;;;2.90;2.70;;;21.90;94.30;;;;;;4975945;28;20049;-76
2021/08/23 00:27:45;;;;;;;3.30;3.10;;;21.90;94.20;;;;;;4975864;28;20031;-74
2021/08/23 00:30:15;;;;;;;3.20;3.00;;;21.90;94.50;;;;;;4976196;28;20109;-75
2021/08/23 00:32:45;;;;;;;3.08;2.88;;;22.00;94.70;;;;;;4975103;28;20114;-76
2021/08/23 00:35:12;;;;;;;3.75;2.90;;;22.10;94.50;;;;;;4976200;28;20101;-76
2021/08/23 00:37:39;;;;;;;3.75;2.50;;;22.20;94.90;;;;;;4975905;28;20027;-78
2021/08/23 00:40:08;;;;;;;2.80;2.60;;;22.30;94.50;;;;;;4974746;28;20539;-75
2021/08/23 00:42:35;;;;;;;3.20;2.92;;;22.50;94.30;;;;;;4959010;28;20030;-76
2021/08/23 00:45:03;;;;;;;3.15;2.88;;;22.50;94.20;;;;;;4975980;28;20046;-77
2021/08/23 00:47:31;;;;;;;6.18;3.03;;;22.70;93.90;;;;;;4974768;28;20033;-75
2021/08/23 00:49:58;;;;;;;3.50;2.70;;;22.70;93.80;;;;;;4975566;28;20361;-76
2021/08/23 00:52:26;;;;;;;4.25;2.63;;;22.80;93.50;;;;;;4974321;28;20061;-75
2021/08/23 00:54:54;;;;;;;2.92;2.50;;;22.90;93.80;;;;;;4975776;28;20023;-74
2021/08/23 00:57:21;;;;;;;3.55;2.47;;;22.90;93.70;;;;;;4973920;28;20050;-76
2021/08/23 00:59:52;;;;;;;2.60;2.40;;;22.90;93.50;;;;;;4975361;28;20031;-75
2021/08/23 01:02:49;;;;;;;3.30;2.42;;;22.90;93.50;;;;;;4975301;28;20033;-75
2021/08/23 01:05:23;;;;;;;3.67;2.50;;;22.90;93.80;;;;;;4975730;28;20077;-75
2021/08/23 01:07:55;;;;;;;3.60;2.50;;;22.90;93.60;;;;;;4975332;28;20033;-76
2021/08/23 01:10:47;;;;;;;2.35;2.17;;;22.90;93.80;;;;;;4974055;28;20412;-76
2021/08/23 01:13:14;;;;;;;2.90;2.35;;;22.90;93.30;;;;;;4974064;28;20487;-75
2021/08/23 01:15:41;;;;;;;2.40;2.30;;;23.00;93.40;;;;;;4974920;28;20038;-74
2021/08/23 01:18:09;;;;;;;2.67;2.47;;;23.00;93.40;;;;;;4974236;28;20027;-77
2021/08/23 01:20:41;;;;;;;3.85;2.70;;;23.00;93.50;;;;;;4975338;28;20019;-76
2021/08/23 01:23:10;;;;;;;3.00;2.75;;;23.10;93.20;;;;;;4975218;28;20023;-76
2021/08/23 01:25:40;;;;;;;3.43;2.33;;;23.10;93.10;;;;;;4973818;28;20018;-76
2021/08/23 01:28:30;;;;;;;2.72;2.47;;;23.20;93.00;;;;;;4974709;28;20027;-75
2021/08/23 01:31:15;;;;;;;;;;;23.20;93.20;;;;;;4975065;28;20495;-76
2021/08/23 01:33:47;;;;;;;3.28;2.80;;;23.20;93.00;;;;;;4974698;28;20280;-75
2021/08/23 01:36:15;;;;;;;3.38;2.47;;;23.10;92.90;;;;;;4973116;28;20038;-74
2021/08/23 01:38:42;;;;;;;3.00;2.40;;;23.00;93.00;;;;;;4974601;28;20046;-77
2021/08/23 01:41:10;;;;;;;4.05;2.22;;;22.90;93.10;;;;;;4973298;28;20027;-76
2021/08/23 01:43:38;;;;;;;2.38;2.00;;;23.00;93.40;;;;;;4974432;28;20105;-76
2021/08/23 01:46:06;;;;;;;2.58;2.25;;;22.90;93.40;;;;;;4974624;28;20023;-75
2021/08/23 01:48:33;;;;;;;2.20;2.00;;;22.90;93.20;;;;;;4974312;28;20018;-76
2021/08/23 01:51:03;;;;;;;4.50;2.10;;;22.90;93.20;;;;;;4974594;28;20399;-76
2021/08/23 01:53:31;;;;;;;2.60;2.40;;;22.90;93.00;;;;;;4973399;28;20133;-74
2021/08/23 01:55:58;;;;;;;2.65;2.33;;;22.90;93.40;;;;;;4974426;28;20058;-76
2021/08/23 01:58:26;;;;;;;2.65;2.45;;;23.00;93.10;;;;;;4974371;28;20397;-77
2021/08/23 02:00:53;;;;;;;3.92;2.05;;;23.10;93.00;;;;;;4974435;28;20101;-74
2021/08/23 02:03:20;;;;;;;4.18;2.70;;;23.20;93.20;;;;;;4974426;28;20050;-77
2021/08/23 02:05:48;;;;;;;2.80;2.40;;;23.30;93.20;;;;;;4974438;28;20544;-75
2021/08/23 02:08:15;;;;;;;2.10;2.00;;;23.40;93.20;;;;;;4973047;28;20046;-77
2021/08/23 02:10:43;;;;;;;2.47;2.28;;;23.40;92.60;;;;;;4975145;28;20098;-78
2021/08/23 02:13:10;;;;;;;2.95;2.47;;;23.50;92.60;;;;;;4974575;28;20483;-74
2021/08/23 02:15:37;;;;;;;2.58;2.38;;;23.70;92.70;;;;;;4974463;28;20117;-76
2021/08/23 02:18:05;;;;;;;2.47;2.30;;;23.90;92.30;;;;;;4974635;28;20118;-77
2021/08/23 02:20:32;;;;;;;2.97;2.40;;;24.00;91.80;;;;;;4974353;28;20019;-78
2021/08/23 02:23:02;;;;;;;3.38;2.80;;;24.00;91.80;;;;;;4974305;28;20046;-77
2021/08/23 02:25:29;;;;;;;2.70;2.50;;;24.00;91.30;;;;;;4974250;28;20111;-78
2021/08/23 02:27:57;;;;;;;3.42;2.53;;;24.00;91.40;;;;;;4973260;28;20027;-77
2021/08/23 02:30:25;;;;;;;4.53;2.20;;;23.90;91.50;;;;;;4976718;28;20027;-77
2021/08/23 02:32:52;;;;;;;3.70;2.25;;;23.80;91.50;;;;;;4978340;28;20089;-79
2021/08/23 02:35:20;;;;;;;2.13;2.03;;;23.70;91.60;;;;;;4978248;28;20019;-77
2021/08/23 02:37:48;;;;;;;2.22;2.03;;;23.60;92.20;;;;;;4978630;28;20027;-78
2021/08/23 02:40:15;;;;;;;4.05;2.47;;;23.50;92.30;;;;;;4976794;28;20057;-74
2021/08/23 02:42:42;;;;;;;3.22;2.47;;;23.40;92.60;;;;;;4978181;28;20101;-76
2021/08/23 02:45:10;;;;;;;3.08;2.70;;;23.20;92.70;;;;;;4977561;28;20033;-78
2021/08/23 02:47:38;;;;;;;3.25;2.20;;;23.10;92.70;;;;;;4977167;28;20038;-78
2021/08/23 02:50:07;;;;;;;2.50;2.30;;;23.00;92.80;;;;;;4978881;28;20030;-79
2021/08/23 02:52:35;;;;;;;2.40;2.20;;;23.00;93.00;;;;;;4978214;28;20019;-78
2021/08/23 02:55:05;;;;;;;2.78;2.22;;;22.90;93.10;;;;;;4978042;28;20041;-78
2021/08/23 02:57:32;;;;;;;2.95;2.42;;;22.80;93.50;;;;;;4976816;28;20117;-78
2021/08/23 03:00:01;;;;;;;2.70;2.50;;;22.80;93.60;;;;;;4978464;28;20050;-78
2021/08/23 03:02:28;;;;;;;2.75;2.53;;;22.70;93.20;;;;;;4978204;28;20023;-78
2021/08/23 03:04:55;;;;;;;2.80;2.33;;;22.80;93.60;;;;;;4977255;28;20054;-80
2021/08/23 03:07:23;;;;;;;3.47;2.80;;;22.70;94.00;;;;;;4984794;28;20105;-78
2021/08/23 03:09:50;;;;;;;2.90;2.70;;;22.70;94.00;;;;;;4978749;28;20109;-79
2021/08/23 03:12:18;;;;;;;2.42;2.22;;;22.60;94.20;;;;;;4977092;28;20555;-78
2021/08/23 03:14:45;;;;;;;2.35;2.15;;;22.60;94.40;;;;;;4978140;28;20455;-78
2021/08/23 03:17:12;;;;;;;3.53;2.10;;;22.60;93.80;;;;;;4977594;28;20472;-79
2021/08/23 03:19:40;;;;;;;6.05;2.80;;;22.70;94.10;;;;;;4977188;28;20023;-78
2021/08/23 03:22:07;;;;;;;2.53;2.20;;;22.70;93.90;;;;;;4977302;28;20026;-77
2021/08/23 03:24:35;;;;;;;2.60;2.40;;;22.70;93.80;;;;;;4977251;28;20027;-76
2021/08/23 03:27:02;;;;;;;2.55;2.38;;;22.70;93.80;;;;;;4977463;28;20158;-77
2021/08/23 03:29:29;;;;;;;3.75;2.40;;;22.70;93.60;;;;;;4977528;28;20042;-77
2021/08/23 03:31:56;;;;;;;2.83;2.53;;;22.70;93.50;;;;;;4977205;28;20101;-75
2021/08/23 03:34:24;;;;;;;2.55;2.35;;;22.70;93.50;;;;;;4975982;28;20026;-76
2021/08/23 03:36:51;;;;;;;3.78;2.50;;;22.70;93.50;;;;;;4976174;28;20037;-75
2021/08/23 03:39:20;;;;;;;5.13;2.70;;;22.70;93.60;;;;;;4975845;28;20474;-77
2021/08/23 03:41:47;;;;;;;2.83;2.60;;;22.80;93.70;;;;;;4978451;28;20019;-79
2021/08/23 03:44:15;;;;;;;2.63;2.42;;;22.90;93.40;;;;;;4976464;28;20106;-78
2021/08/23 03:46:42;;;;;;;3.83;2.65;;;23.10;93.20;;;;;;4960279;28;20034;-78
2021/08/23 03:49:10;;;;;;;2.42;2.10;;;23.30;93.30;;;;;;4977479;28;20098;-77
2021/08/23 03:51:37;;;;;;;2.88;2.25;;;23.50;92.90;;;;;;4977677;28;20029;-76
2021/08/23 03:54:07;;;;;;;2.90;2.67;;;23.90;92.80;;;;;;4977446;28;20035;-76
2021/08/23 03:56:34;;;;;;;2.70;2.50;;;24.10;92.30;;;;;;4976926;28;20037;-75
2021/08/23 03:59:02;;;;;;;2.63;2.40;;;24.20;92.30;;;;;;4977107;28;20061;-77
2021/08/23 04:01:29;;;;;;;3.38;2.40;;;24.50;92.00;;;;;;4976949;28;20053;-78
2021/08/23 04:03:56;;;;;;;2.65;2.40;;;24.40;92.00;;;;;;4976010;28;20058;-76
2021/08/23 04:06:24;;;;;;;2.50;2.30;;;24.30;92.30;;;;;;4975288;28;20023;-78
2021/08/23 04:08:51;;;;;;;2.40;2.05;;;24.20;92.30;;;;;;4976953;28;20023;-79
2021/08/23 04:11:22;;;;;;;3.13;2.13;;;24.10;92.00;;;;;;4976421;28;20074;-77
2021/08/23 04:13:49;;;;;;;2.40;2.20;;;24.10;92.00;;;;;;4976579;28;20065;-77
2021/08/23 04:16:20;;;;;;;4.03;2.13;;;24.20;92.30;;;;;;4976405;28;20062;-78
2021/08/23 04:18:48;;;;;;;2.95;2.75;;;24.40;92.00;;;;;;4976297;28;20443;-77
2021/08/23 04:21:16;;;;;;;5.18;2.80;;;24.40;91.80;;;;;;4976910;28;20459;-76
2021/08/23 04:23:44;;;;;;;5.40;2.30;;;24.40;91.90;;;;;;4974840;28;20431;-79
2021/08/23 04:26:11;;;;;;;2.90;2.70;;;24.30;92.00;;;;;;4976366;28;20022;-77
2021/08/23 04:28:38;;;;;;;5.32;3.00;;;24.20;91.90;;;;;;4976431;28;20060;-78
2021/08/23 04:31:06;;;;;;;3.88;2.67;;;24.00;91.80;;;;;;4976436;28;20023;-80
2021/08/23 04:33:33;;;;;;;3.00;2.70;;;24.00;92.30;;;;;;4976146;28;20479;-76
2021/08/23 04:36:03;;;;;;;;;;;24.00;92.10;;;;;;4976777;28;20118;-78
2021/08/23 04:38:30;;;;;;;4.28;2.58;;;23.90;91.40;;;;;;4974537;28;19940;-78
2021/08/23 04:40:57;;;;;;;6.80;2.97;;;23.90;91.10;;;;;;4975075;28;20027;-77
2021/08/23 04:43:25;;;;;;;4.03;2.80;;;23.70;90.60;;;;;;4976374;28;20018;-77
2021/08/23 04:45:52;;;;;;;5.80;2.50;;;23.60;90.50;;;;;;4974528;28;20023;-78
2021/08/23 04:48:19;;;;;;;3.13;2.20;;;23.60;90.30;;;;;;4975892;28;20023;-77
2021/08/23 04:50:47;;;;;;;2.47;2.33;;;23.50;91.00;;;;;;4974274;28;20400;-77
2021/08/23 04:53:14;;;;;;;2.88;2.38;;;23.40;89.90;;;;;;4973406;28;20022;-77
2021/08/23 04:55:44;;;;;;;3.00;2.80;;;23.30;90.00;;;;;;4976607;28;20488;-80
2021/08/23 04:58:11;;;;;;;2.58;2.38;;;23.20;90.20;;;;;;4976000;28;20031;-78
2021/08/23 05:00:39;;;;;;;2.30;2.10;;;23.20;90.00;;;;;;4974706;28;20026;-78
2021/08/23 05:03:09;;;;;;;2.20;2.00;;;23.20;90.10;;;;;;4975190;28;20026;-79
2021/08/23 05:05:40;;;;;;;2.30;2.10;;;23.10;90.00;;;;;;4976510;28;20030;-79
2021/08/23 05:08:08;;;;;;;2.25;2.00;;;23.10;90.10;;;;;;4975744;28;20030;-78
2021/08/23 05:10:38;;;;;;;3.33;2.20;;;22.90;89.90;;;;;;4974199;28;20030;-78
2021/08/23 05:13:06;;;;;;;2.40;2.10;;;22.90;90.30;;;;;;4978362;28;20035;-79
2021/08/23 05:15:41;;;;;;;4.15;2.60;;;22.80;89.80;;;;;;5091474;27;20644;-77
2021/08/23 05:18:09;;;;;;;3.13;2.33;;;22.70;90.50;;;;;;5091054;28;20028;-79
2021/08/23 05:20:36;;;;;;;2.90;2.30;;;22.70;90.20;;;;;;5091213;28;20048;-77
2021/08/23 05:23:04;;;;;;;3.20;2.40;;;22.60;90.40;;;;;;5091619;28;20023;-78
2021/08/23 05:25:34;;;;;;;2.65;2.45;;;22.50;90.90;;;;;;5089581;28;20107;-80
2021/08/23 05:28:04;;;;;;;2.47;2.28;;;22.50;91.00;;;;;;5090813;28;20038;-79
2021/08/23 05:30:31;;;;;;;3.80;2.20;;;22.50;90.90;;;;;;5091037;28;20036;-79
2021/08/23 05:32:59;;;;;;;3.58;2.17;;;22.40;91.00;;;;;;5090820;28;20028;-77
2021/08/23 05:35:26;;;;;;;3.13;2.60;;;22.40;91.10;;;;;;5090508;28;20029;-79
2021/08/23 05:37:54;;;;;;;2.95;2.75;;;22.30;91.50;;;;;;5090447;28;20016;-77
2021/08/23 05:40:23;;;;;;;2.55;2.42;;;22.20;91.60;;;;;;5088997;28;20023;-77
2021/08/23 05:42:54;;;;;;;4.45;2.90;;;22.10;92.00;;;;;;5090289;28;20031;-76
2021/08/23 05:45:21;;;;;;;2.70;2.58;;;22.10;92.00;;;;;;5090349;28;20029;-76
2021/08/23 05:47:48;;;;;;;3.58;2.50;;;22.00;92.20;;;;;;5090389;28;20021;-78
2021/08/23 05:50:16;;;;;;;2.60;2.40;;;21.90;91.90;;;;;;5090320;28;20027;-76
2021/08/23 05:52:43;;;;;;;2.40;2.30;;;21.90;91.70;;;;;;5090069;28;20020;-77
2021/08/23 05:55:10;;;;;;;2.80;2.58;;;21.80;91.90;;;;;;5089001;28;20020;-77
2021/08/23 05:57:39;;;;;;;2.53;2.25;;;21.80;92.00;;;;;;5090099;28;20021;-75
2021/08/23 06:00:08;;;;;;;2.40;2.20;;;21.80;92.00;;;;;;5089961;28;20017;-76
2021/08/23 06:02:36;;;;;;;4.07;2.38;;;21.70;92.10;;;;;;5088561;28;20031;-76
2021/08/23 06:05:05;;;;;;;2.40;2.30;;;21.70;92.10;;;;;;5089603;28;20070;-76
2021/08/23 06:07:34;;;;;;;3.55;2.78;;;21.60;92.20;;;;;;5089728;28;20030;-74
2021/08/23 06:10:01;;;;;;;2.92;2.72;;;21.60;92.00;;;;;;5088444;28;20097;-75
2021/08/23 06:12:29;;;;;;;2.85;2.67;;;21.50;91.90;;;;;;5089787;28;20024;-75
2021/08/23 06:14:56;;;;;;;2.80;2.60;;;21.50;92.00;;;;;;5088217;28;20047;-78
2021/08/23 06:17:24;;;;;;;2.80;2.60;;;21.50;92.30;;;;;;5090675;28;20112;-77
2021/08/23 06:19:52;;;;;;;2.97;2.70;;;21.50;92.20;;;;;;5089815;28;20104;-78
2021/08/23 06:22:19;;;;;;;3.72;2.92;;;21.50;92.20;;;;;;5088675;28;20391;-76
2021/08/23 06:24:49;;;;;;;2.78;2.58;;;21.40;92.10;;;;;;5089303;28;20028;-76
2021/08/23 06:27:17;;;;;;;3.17;2.90;;;21.40;92.20;;;;;;5076628;28;20048;-78
2021/08/23 06:29:44;;;;;;;3.30;3.10;;;21.40;92.30;;;;;;5076652;28;20396;-78
2021/08/23 06:32:11;;;;;;;3.88;3.50;;;21.30;93.00;;;;;;5076560;28;20099;-80
2021/08/23 06:34:39;;;;;;;3.10;2.90;;;21.20;94.30;;;;;;5076958;28;20473;-78
2021/08/23 06:37:06;;;;;;;4.28;3.88;;;21.10;94.70;;;;;;5076955;28;20024;-78
2021/08/23 06:39:33;;;;;;;3.58;3.13;;;20.90;94.90;;;;;;5076626;28;20048;-79
2021/08/23 06:42:01;;;;;;;3.78;2.90;;;20.90;95.70;;;;;;5076592;28;20082;-80
2021/08/23 06:44:28;;;;;;;2.97;2.72;;;20.70;95.30;;;;;;5075336;28;20040;-78
2021/08/23 06:46:56;;;;;;;5.72;3.08;;;20.60;95.20;;;;;;5076778;28;20380;-78
2021/08/23 06:49:23;;;;;;;3.78;3.50;;;20.60;95.10;;;;;;5076674;28;20035;-78
2021/08/23 06:51:50;;;;;;;3.65;2.90;;;20.60;94.80;;;;;;5076554;28;20104;-78
2021/08/23 06:54:18;;;;;;;4.38;3.15;;;20.60;94.60;;;;;;5074519;28;20123;-77
2021/08/23 06:56:46;;;;;;;3.42;3.00;;;20.60;95.60;;;;;;5077050;28;20389;-78
2021/08/23 06:59:13;;;;;;;3.20;3.00;;;20.50;96.90;;;;;;5075621;28;20119;-77
2021/08/23 07:01:40;;;;;;;3.38;2.92;;;20.40;96.90;;;;;;5074323;28;20021;-77
2021/08/23 07:04:08;;;;;;;4.53;2.72;;;20.30;96.50;;;;;;5074105;28;20058;-76
2021/08/23 07:06:37;;;;;;;3.53;3.20;;;20.30;96.70;;;;;;5079102;28;20033;-79
2021/08/23 07:09:04;;;;;;;4.35;3.05;;;20.30;97.10;;;;;;5077678;28;20036;-78
2021/08/23 07:11:31;;;;;;;3.17;2.95;;;20.30;96.90;;;;;;5076169;28;20512;-77
2021/08/23 07:13:59;;;;;;;3.35;3.15;;;20.20;97.00;;;;;;5075708;28;20041;-77
2021/08/23 07:16:26;;;;;;;3.22;2.90;;;20.10;97.70;;;;;;5076597;28;20017;-78
2021/08/23 07:18:54;;;;;;;3.13;2.88;;;19.90;98.00;;;;;;5075658;28;20389;-76
2021/08/23 07:21:21;;;;;;;3.40;3.10;;;19.80;99.40;;;;;;5075476;28;20016;-77
2021/08/23 07:23:48;;;;;;;3.30;3.10;;;19.60;99.90;;;;;;5078140;28;20027;-77
2021/08/23 07:26:19;;;;;;;3.45;3.25;;;19.40;99.90;;;;;;5079413;28;20032;-81
2021/08/23 07:28:46;;;;;;;4.00;3.70;;;19.30;99.90;;;;;;5075879;28;20094;-82
2021/08/23 07:31:15;;;;;;;3.15;2.90;;;19.20;99.90;;;;;;5074438;28;20481;-80
2021/08/23 07:33:45;;;;;;;3.47;2.92;;;19.10;99.90;;;;;;5076454;28;20489;-79
2021/08/23 07:36:13;;;;;;;3.10;2.90;;;19.10;99.90;;;;;;5074488;28;20089;-80
2021/08/23 07:38:43;;;;;;;3.00;2.75;;;19.10;99.90;;;;;;5075266;28;20085;-79
2021/08/23 07:41:10;;;;;;;2.85;2.65;;;19.00;99.90;;;;;;5076134;28;20439;-80
2021/08/23 07:43:39;;;;;;;3.92;2.90;;;19.00;99.90;;;;;;5074400;28;20029;-80
2021/08/23 07:46:09;;;;;;;37.67;13.88;;;19.00;99.90;;;;;;5076819;28;20025;-80
2021/08/23 07:48:38;;;;;;;14.30;6.63;;;19.10;99.90;;;;;;5076531;28;20059;-80
2021/08/23 07:51:05;;;;;;;7.95;4.25;;;19.10;99.90;;;;;;5076320;28;20348;-79
2021/08/23 07:53:33;;;;;;;6.50;4.20;;;19.10;99.90;;;;;;5077887;28;20119;-81
2021/08/23 07:56:01;;;;;;;28.02;13.55;;;19.10;99.90;;;;;;5080694;28;20027;-81
2021/08/23 07:58:28;;;;;;;13.32;7.57;;;19.10;99.90;;;;;;5075255;28;20429;-78
2021/08/23 08:00:56;;;;;;;12.93;5.50;;;19.10;99.90;;;;;;5076772;28;20013;-79
2021/08/23 08:03:23;;;;;;;6.38;3.92;;;19.10;99.90;;;;;;5076837;28;20020;-80
2021/08/23 08:05:50;;;;;;;8.13;5.43;;;19.10;99.90;;;;;;5075079;28;20514;-80
2021/08/23 08:08:18;;;;;;;10.43;5.03;;;19.10;99.90;;;;;;5074679;28;20077;-80
2021/08/23 08:10:45;;;;;;;26.42;12.05;;;19.00;99.90;;;;;;5079908;28;20024;-80
2021/08/23 08:13:12;;;;;;;6.13;5.38;;;19.10;99.90;;;;;;5073525;28;20389;-79
2021/08/23 08:15:40;;;;;;;4.18;3.88;;;19.00;99.90;;;;;;5073235;28;20086;-81
2021/08/23 08:18:07;;;;;;;9.27;5.10;;;19.00;99.90;;;;;;5073343;28;20025;-80
2021/08/23 08:20:35;;;;;;;4.63;4.03;;;18.90;99.90;;;;;;5074610;28;20050;-78
2021/08/23 08:23:02;;;;;;;4.30;4.00;;;18.80;99.90;;;;;;5073915;28;20051;-80
2021/08/23 08:25:30;;;;;;;14.65;6.22;;;18.90;99.90;;;;;;5074536;28;20025;-79
2021/08/23 08:27:57;;;;;;;8.82;6.00;;;18.80;99.90;;;;;;5073641;28;20510;-78
2021/08/23 08:30:25;;;;;;;5.70;4.70;;;18.60;99.90;;;;;;5073540;28;20027;-80
2021/08/23 08:32:52;;;;;;;5.78;5.22;;;18.40;99.90;;;;;;5072219;28;20024;-81
2021/08/23 08:35:21;;;;;;;6.35;5.82;;;18.30;99.90;;;;;;5071787;28;20085;-78
2021/08/23 08:37:48;;;;;;;6.78;6.20;;;18.20;99.90;;;;;;5073250;28;20152;-81
2021/08/23 08:40:15;;;;;;;6.43;6.00;;;18.10;99.90;;;;;;5071826;28;20031;-79
2021/08/23 08:42:43;;;;;;;14.20;8.60;;;18.00;99.90;;;;;;5071697;28;20059;-78
2021/08/23 08:45:12;;;;;;;11.05;8.32;;;18.00;99.90;;;;;;5071703;28;20032;-79
2021/08/23 08:47:44;;;;;;;9.30;7.72;;;17.90;99.90;;;;;;5071736;28;20035;-79
2021/08/23 08:50:15;;;;;;;10.85;9.75;;;17.80;99.90;;;;;;5072921;28;20099;-80
2021/08/23 08:52:45;;;;;;;8.52;7.88;;;17.80;99.90;;;;;;5073175;28;20067;-79
2021/08/23 08:55:13;;;;;;;10.10;9.10;;;17.60;99.90;;;;;;5072815;28;20028;-80
2021/08/23 08:57:41;;;;;;;10.07;8.98;;;17.50;99.90;;;;;;5073746;28;20090;-80
2021/08/23 09:00:10;;;;;;;11.90;10.77;;;17.40;99.90;;;;;;5072123;28;20112;-80
2021/08/23 09:02:37;;;;;;;12.82;11.00;;;17.40;99.90;;;;;;5072516;28;20021;-79
2021/08/23 09:05:17;;;;;;;13.73;12.15;;;17.40;99.90;;;;;;5073488;28;20094;-80
2021/08/23 09:07:51;;;;;;;13.23;12.20;;;17.40;99.90;;;;;;5072091;28;20486;-80
2021/08/23 09:10:21;;;;;;;13.85;12.70;;;17.40;99.90;;;;;;5073174;28;20104;-78
2021/08/23 09:13:00;;;;;;;15.20;13.77;;;17.30;99.90;;;;;;5073100;28;20081;-78
2021/08/23 09:15:28;;;;;;;13.95;13.05;;;17.20;99.90;;;;;;5073296;28;20037;-79
2021/08/23 09:18:07;;;;;;;14.07;13.02;;;17.20;99.90;;;;;;5073065;28;20469;-79
2021/08/23 09:20:38;;;;;;;17.80;15.82;;;17.20;99.90;;;;;;5071840;28;20032;-79
2021/08/23 09:23:14;;;;;;;14.70;13.23;;;17.20;99.90;;;;;;5072798;28;20025;-77
2021/08/23 09:25:44;;;;;;;13.00;11.95;;;17.20;99.90;;;;;;5072942;28;20097;-78
2021/08/23 09:28:12;;;;;;;14.43;13.03;;;17.20;99.90;;;;;;5071843;28;20029;-77
2021/08/23 09:30:40;;;;;;;13.20;12.00;;;17.10;99.90;;;;;;5072067;28;20074;-79
2021/08/23 09:33:08;;;;;;;13.30;12.00;;;17.10;99.90;;;;;;5073200;28;20412;-78
2021/08/23 09:35:38;;;;;;;14.23;12.82;;;17.10;99.90;;;;;;5072533;28;20108;-76
2021/08/23 09:38:10;;;;;;;12.52;11.43;;;17.00;99.90;;;;;;5073651;28;20146;-77
2021/08/23 09:40:38;;;;;;;12.98;11.85;;;17.00;99.90;;;;;;5073927;28;20025;-77
2021/08/23 09:43:13;;;;;;;13.95;12.85;;;17.00;99.90;;;;;;5072109;28;20383;-77
2021/08/23 09:45:47;;;;;;;11.57;10.70;;;16.90;99.90;;;;;;5072784;28;20074;-79
2021/08/23 09:48:15;;;;;;;13.05;11.82;;;16.90;99.90;;;;;;5072978;28;20086;-79
2021/08/23 09:50:51;;;;;;;15.05;13.75;;;16.90;99.90;;;;;;5071820;28;20503;-79
2021/08/23 09:53:20;;;;;;;12.60;11.50;;;16.80;99.90;;;;;;5072666;28;20427;-77
2021/08/23 09:55:49;;;;;;;11.93;11.00;;;16.80;99.90;;;;;;5071115;28;20024;-76
2021/08/23 09:58:17;;;;;;;13.15;12.10;;;16.70;99.90;;;;;;5073027;28;20523;-77
2021/08/23 10:00:45;;;;;;;12.82;11.73;;;16.60;99.90;;;;;;5074036;28;20355;-78
2021/08/23 10:03:22;;;;;;;12.40;11.50;;;16.70;99.90;;;;;;5075539;28;20028;-75
2021/08/23 10:05:53;;;;;;;12.45;11.35;;;16.70;99.90;;;;;;5077450;28;20017;-77
2021/08/23 10:08:25;;;;;;;13.57;12.50;;;16.70;99.90;;;;;;5077223;28;20055;-77
2021/08/23 10:10:53;;;;;;;13.38;12.13;;;16.70;99.90;;;;;;5076747;28;20523;-78
2021/08/23 10:13:21;;;;;;;12.50;11.60;;;16.70;99.90;;;;;;5078794;28;20016;-79
2021/08/23 10:15:48;;;;;;;15.05;13.55;;;16.70;99.90;;;;;;5078224;28;20033;-78
2021/08/23 10:18:17;;;;;;;12.20;11.30;;;16.60;99.90;;;;;;5076870;28;20021;-77
2021/08/23 10:20:44;;;;;;;12.65;11.63;;;16.60;99.90;;;;;;5059134;28;20484;-77
2021/08/23 10:23:16;;;;;;;12.75;11.65;;;16.50;99.90;;;;;;5078997;28;20024;-78
2021/08/23 10:25:46;;;;;;;12.30;11.40;;;16.40;99.90;;;;;;5075055;28;20025;-77
2021/08/23 10:28:16;;;;;;;12.60;11.45;;;16.30;99.90;;;;;;5076357;28;20028;-77
2021/08/23 10:30:43;;;;;;;12.45;11.63;;;16.30;99.90;;;;;;5074941;28;20024;-76
2021/08/23 10:33:19;;;;;;;12.00;11.10;;;16.20;99.90;;;;;;5077084;28;20024;-76
2021/08/23 10:35:57;;;;;;;12.50;11.68;;;16.20;99.90;;;;;;5077491;28;20028;-78
2021/08/23 10:38:26;;;;;;;11.40;10.50;;;16.10;99.90;;;;;;5076199;28;20025;-80
2021/08/23 10:41:15;;;;;;;12.07;11.23;;;16.00;99.90;;;;;;5076586;28;20019;-78
2021/08/23 10:43:58;;;;;;;11.73;10.80;;;16.00;99.90;;;;;;5075574;28;20041;-77
2021/08/23 10:46:32;;;;;;;11.70;10.85;;;15.90;99.90;;;;;;5076017;28;20012;-76
2021/08/23 10:49:05;;;;;;;11.65;10.82;;;15.90;99.90;;;;;;5075631;28;20377;-76
2021/08/23 10:51:38;;;;;;;12.10;11.20;;;15.90;99.90;;;;;;5075511;28;20047;-77
2021/08/23 10:54:21;;;;;;;12.38;11.35;;;15.90;99.90;;;;;;5074261;28;20025;-76
2021/08/23 10:57:06;;;;;;;11.57;10.77;;;15.90;99.90;;;;;;5074460;28;20119;-79
2021/08/23 10:59:44;;;;;;;11.73;10.93;;;15.90;99.90;;;;;;5074420;28;20059;-81
2021/08/23 11:02:32;;;;;;;12.60;11.80;;;16.00;99.90;;;;;;5075847;28;20031;-79
2021/08/23 11:05:04;;;;;;;12.52;11.45;;;16.00;99.90;;;;;;5076624;28;20152;-79
2021/08/23 11:07:33;;;;;;;12.88;11.90;;;16.00;99.90;;;;;;5077182;28;20024;-77
2021/08/23 11:10:16;;;;;;;11.13;10.30;;;16.10;99.90;;;;;;5077233;28;20029;-80
2021/08/23 11:12:46;;;;;;;10.80;10.10;;;16.10;99.90;;;;;;5075837;28;20025;-78
2021/08/23 11:15:33;;;;;;;10.80;9.85;;;16.10;99.90;;;;;;5075604;28;20454;-78
2021/08/23 11:18:08;;;;;;;11.32;10.52;;;16.20;99.90;;;;;;5075910;28;20023;-79
2021/08/23 11:20:38;;;;;;;10.00;9.20;;;16.20;99.90;;;;;;5074730;28;20020;-78
2021/08/23 11:23:09;;;;;;;10.55;9.75;;;16.20;99.90;;;;;;5075473;28;20504;-78
2021/08/23 11:25:42;;;;;;;10.70;9.80;;;16.30;99.90;;;;;;5076479;28;20088;-78
2021/08/23 11:28:15;;;;;;;10.57;9.82;;;16.30;99.90;;;;;;5075609;28;20021;-78
2021/08/23 11:30:50;;;;;;;10.07;9.45;;;16.30;99.90;;;;;;5076527;28;20032;-79
2021/08/23 11:33:40;;;;;;;10.93;10.00;;;16.30;99.90;;;;;;5076338;28;20078;-80
2021/08/23 11:36:24;;;;;;;10.80;9.88;;;16.30;99.90;;;;;;5075255;28;20021;-81
2021/08/23 11:38:51;;;;;;;11.48;10.77;;;16.40;99.90;;;;;;5074765;28;20020;-80
2021/08/23 11:41:18;;;;;;;10.45;9.75;;;16.40;99.90;;;;;;5075203;28;20428;-79
2021/08/23 11:43:46;;;;;;;11.23;10.40;;;16.30;99.90;;;;;;5074029;28;20021;-79
2021/08/23 11:46:13;;;;;;;11.57;10.75;;;16.40;99.90;;;;;;5074042;28;20024;-77
2021/08/23 11:48:53;;;;;;;11.10;10.40;;;16.30;99.90;;;;;;5073574;28;20025;-78
2021/08/23 11:51:35;;;;;;;11.40;10.60;;;16.30;99.90;;;;;;5073584;28;20485;-77
2021/08/23 11:54:05;;;;;;;11.75;10.90;;;16.30;99.90;;;;;;5074889;28;20028;-78
2021/08/23 11:56:32;;;;;;;;;;;16.30;99.90;;;;;;5075372;28;20027;-78
2021/08/23 11:58:59;;;;;;;11.82;11.02;;;16.30;99.90;;;;;;5074840;28;19904;-80
2021/08/23 12:01:27;;;;;;;11.15;10.45;;;16.30;99.90;;;;;;5073448;28;20115;-78
2021/08/23 12:04:00;;;;;;;10.70;10.10;;;16.30;99.90;;;;;;5075674;28;20017;-76
2021/08/23 12:06:34;;;;;;;11.15;10.43;;;16.30;99.90;;;;;;5072857;28;20138;-76
2021/08/23 12:09:03;;;;;;;11.30;10.57;;;16.30;99.90;;;;;;5074600;28;20104;-77
2021/08/23 12:11:42;;;;;;;11.52;10.82;;;16.30;99.90;;;;;;5074228;28;20374;-77
2021/08/23 12:14:24;;;;;;;11.20;10.50;;;16.30;99.90;;;;;;5075085;28;20101;-78
2021/08/23 12:16:55;;;;;;;11.93;11.13;;;16.40;99.90;;;;;;5074993;28;20457;-78
2021/08/23 12:19:22;;;;;;;11.07;10.00;;;16.40;99.90;;;;;;5075965;28;20099;-77
2021/08/23 12:22:01;;;;;;;10.45;9.85;;;16.40;99.90;;;;;;5074270;28;20036;-79
2021/08/23 12:24:28;;;;;;;13.15;12.23;;;16.50;99.90;;;;;;5074092;28;20063;-78
2021/08/23 12:27:00;;;;;;;12.05;11.15;;;16.50;99.90;;;;;;5074228;28;20108;-77
2021/08/23 12:29:37;;;;;;;13.15;12.10;;;16.60;99.90;;;;;;5073138;28;20021;-77
2021/08/23 12:32:14;;;;;;;12.52;11.68;;;16.60;99.90;;;;;;5073069;28;20031;-77
2021/08/23 12:34:50;;;;;;;13.05;12.02;;;16.50;99.90;;;;;;5074187;28;20039;-77
2021/08/23 12:37:19;;;;;;;14.85;13.65;;;16.40;99.90;;;;;;5074097;28;20020;-76
2021/08/23 12:39:48;;;;;;;13.88;13.00;;;16.30;99.90;;;;;;5074452;28;20016;-76
2021/08/23 12:42:20;;;;;;;13.43;12.70;;;16.30;99.90;;;;;;5073825;28;20016;-76
2021/08/23 12:44:48;;;;;;;14.93;13.98;;;16.20;99.90;;;;;;5072811;28;20025;-77
2021/08/23 12:47:15;;;;;;;13.98;12.93;;;16.20;99.90;;;;;;5072644;28;20452;-77
2021/08/23 12:49:43;;;;;;;14.55;13.55;;;16.20;99.90;;;;;;5072381;28;20384;-77
2021/08/23 12:52:10;;;;;;;14.00;13.10;;;16.20;99.90;;;;;;5073710;28;20031;-76